Time;durP1;ratioP1;P1;durP2;ratioP2;P2;SDS_P1;SDS_P2;PMS_P1;PMS_P2;Temp;Humidity;BMP_temperature;BMP_pressure;BME280_temperature;BME280_humidity;BME280_pressure;Samples;Min_cycle;Max_cycle;Signal;HPM_P1;HPM_P2
2023/08/15 00:02:19;;;;;;;2.50;1.90;;;;;;;18.95;88.03;101269.06;5056215;28;20041;-76
2023/08/15 00:04:44;;;;;;;4.07;2.08;;;;;;;18.93;88.02;101263.84;5057413;28;20032;-76
2023/08/15 00:07:10;;;;;;;4.60;2.35;;;;;;;18.91;88.05;101265.78;5056447;28;20269;-76
2023/08/15 00:09:36;;;;;;;2.03;1.88;;;;;;;18.90;88.06;101263.22;5055940;28;20248;-76
2023/08/15 00:12:01;;;;;;;4.57;1.77;;;;;;;18.90;88.18;101261.44;5056968;28;20032;-76
2023/08/15 00:14:27;;;;;;;4.88;2.00;;;;;;;18.88;88.27;101262.47;5056365;28;20257;-76
2023/08/15 00:16:52;;;;;;;2.70;1.63;;;;;;;18.88;88.52;101262.47;5056840;28;20104;-76
2023/08/15 00:19:18;;;;;;;3.63;1.33;;;;;;;18.86;88.51;101257.28;5055678;28;20041;-76
2023/08/15 00:21:43;;;;;;;3.83;2.00;;;;;;;18.86;88.38;101262.56;5038104;28;20047;-76
2023/08/15 00:24:09;;;;;;;4.47;1.65;;;;;;;18.85;88.64;101260.06;5056191;28;20032;-76
2023/08/15 00:26:34;;;;;;;5.22;1.48;;;;;;;18.85;88.44;101262.72;5055333;28;20025;-76
2023/08/15 00:28:59;;;;;;;4.05;1.63;;;;;;;18.84;88.64;101267.16;5056411;28;20380;-76
2023/08/15 00:31:25;;;;;;;3.75;1.48;;;;;;;18.84;88.72;101272.44;5055737;28;20053;-76
2023/08/15 00:33:50;;;;;;;3.72;1.63;;;;;;;18.83;88.45;101269.91;5056086;28;20044;-76
2023/08/15 00:36:17;;;;;;;2.88;1.50;;;;;;;18.83;88.69;101273.44;5056218;28;20195;-76
2023/08/15 00:38:43;;;;;;;4.25;1.60;;;;;;;18.82;89.02;101279.66;5056197;28;20060;-76
2023/08/15 00:41:08;;;;;;;4.78;1.90;;;;;;;18.82;89.25;101277.03;5056317;28;20044;-76
2023/08/15 00:43:34;;;;;;;4.07;1.70;;;;;;;18.80;89.10;101286.84;5055457;28;20324;-76
2023/08/15 00:46:02;;;;;;;4.68;1.70;;;;;;;18.79;89.41;101272.75;5056126;28;20028;-76
2023/08/15 00:48:29;;;;;;;6.45;2.15;;;;;;;18.79;89.79;101275.41;5055662;28;20036;-76
2023/08/15 00:50:56;;;;;;;2.80;1.50;;;;;;;18.78;89.69;101273.69;5056182;28;20052;-76
2023/08/15 00:53:21;;;;;;;3.22;1.73;;;;;;;18.78;89.92;101281.66;5055157;28;20322;-76
2023/08/15 00:55:48;;;;;;;2.95;1.67;;;;;;;18.77;89.97;101287.94;5055661;28;20032;-76
2023/08/15 00:58:15;;;;;;;4.43;1.63;;;;;;;18.77;90.13;101281.75;5055650;28;20025;-76
2023/08/15 01:04:02;;;;;;;4.65;1.48;;;;;;;18.75;90.61;101281.84;4997478;22;20052;-88
2023/08/15 01:06:28;;;;;;;4.57;1.70;;;;;;;18.74;90.78;101271.38;5020269;28;20116;-88
2023/08/15 01:08:53;;;;;;;3.63;1.80;;;;;;;18.74;90.64;101276.69;5017924;28;20098;-88
2023/08/15 01:11:19;;;;;;;5.68;1.80;;;;;;;18.74;90.68;101268.72;5016584;28;20027;-88
2023/08/15 01:14:02;;;;;;;5.35;1.65;;;;;;;18.73;90.92;101264.34;5035157;28;20036;-88
2023/08/15 01:16:37;;;;;;;4.85;1.80;;;;;;;18.72;91.20;101260.88;5016715;28;20069;-87
2023/08/15 01:19:29;;;;;;;4.43;1.50;;;;;;;18.72;91.38;101262.63;5017825;28;20035;-88
2023/08/15 01:21:58;;;;;;;2.78;1.63;;;;;;;18.70;91.52;101260.13;5017209;28;20032;-88
2023/08/15 01:24:24;;;;;;;5.47;1.85;;;;;;;18.68;91.57;101262.03;5016903;28;20036;-87
2023/08/15 01:26:50;;;;;;;7.25;1.77;;;;;;;18.69;91.87;101262.88;5034913;28;20025;-87
2023/08/15 01:29:15;;;;;;;5.53;1.98;;;;;;;18.68;91.96;101266.47;5017487;28;20021;-88
2023/08/15 01:32:14;;;;;;;3.55;1.40;;;;;;;18.68;92.26;101261.16;5016060;28;20026;-87
2023/08/15 01:34:50;;;;;;;4.50;1.58;;;;;;;18.67;92.13;101270.09;4987763;28;20094;-88
2023/08/15 01:37:30;;;;;;;3.22;1.67;;;;;;;18.66;91.99;101276.34;5016776;28;20033;-88
2023/08/15 01:40:00;;;;;;;3.58;1.45;;;;;;;18.65;92.61;101277.31;5017023;28;20049;-87
2023/08/15 01:42:30;;;;;;;7.07;2.28;;;;;;;18.64;92.69;101278.25;5034809;28;20079;-88
2023/08/15 01:44:58;;;;;;;4.75;1.55;;;;;;;18.63;92.99;101269.44;5017123;28;20267;-87
2023/08/15 01:47:23;;;;;;;4.40;1.98;;;;;;;18.62;92.87;101270.38;5016367;28;20335;-87
2023/08/15 01:49:49;;;;;;;5.85;1.65;;;;;;;18.61;93.30;101271.34;5017340;28;20025;-88
2023/08/15 01:52:14;;;;;;;6.78;1.83;;;;;;;18.61;93.21;101272.19;5016561;28;20356;-88
2023/08/15 01:54:40;;;;;;;6.05;1.92;;;;;;;18.62;93.36;101270.38;5016813;28;20571;-88
2023/08/15 01:57:06;;;;;;;3.75;1.67;;;;;;;18.62;93.52;101267.72;5016802;28;20087;-87
2023/08/15 01:59:31;;;;;;;3.88;1.77;;;;;;;18.61;93.91;101276.66;5000073;28;20136;-87
2023/08/15 02:01:57;;;;;;;4.35;1.90;;;;;;;18.63;93.97;101276.53;5034464;28;20037;-87
2023/08/15 02:04:22;;;;;;;7.05;1.80;;;;;;;18.63;94.05;101281.84;5015706;28;20343;-87
2023/08/15 02:06:48;;;;;;;3.38;1.67;;;;;;;18.64;94.21;101288.84;5016896;28;20075;-87
2023/08/15 02:09:13;;;;;;;3.92;2.10;;;;;;;18.64;94.20;101289.69;5015980;28;20033;-87
2023/08/15 02:11:39;;;;;;;6.07;2.20;;;;;;;18.63;94.42;101279.19;5000098;28;20032;-88
2023/08/15 02:14:04;;;;;;;3.47;1.50;;;;;;;18.64;94.47;101283.56;5000038;28;20047;-88
2023/08/15 02:16:30;;;;;;;7.60;2.22;;;;;;;18.63;94.47;101279.19;5015772;28;20025;-87
2023/08/15 02:18:55;;;;;;;5.97;2.25;;;;;;;18.64;94.79;101275.59;5016269;28;20059;-87
2023/08/15 02:21:21;;;;;;;3.67;1.75;;;;;;;18.63;95.07;101266.78;5015641;28;20096;-88
2023/08/15 02:23:46;;;;;;;4.95;1.58;;;;;;;18.63;94.94;101273.88;5016326;28;20028;-88
2023/08/15 02:26:12;;;;;;;6.57;2.00;;;;;;;18.63;94.84;101280.06;4999307;28;20060;-87
2023/08/15 02:28:38;;;;;;;1.90;1.60;;;;;;;18.64;95.27;101286.19;5034004;28;20423;-88
2023/08/15 02:31:05;;;;;;;5.00;1.63;;;;;;;18.64;95.22;101288.84;5016294;28;20025;-87
2023/08/15 02:33:32;;;;;;;4.40;1.80;;;;;;;18.64;95.46;101291.50;5015982;28;20041;-87
2023/08/15 02:36:05;;;;;;;6.78;1.80;;;;;;;18.64;95.40;101291.50;5005082;28;20026;-88
2023/08/15 02:38:31;;;;;;;4.07;1.75;;;;;;;18.63;95.53;101284.50;5013794;28;20042;-87
2023/08/15 02:40:56;;;;;;;4.70;1.35;;;;;;;18.64;95.56;101291.50;4995940;28;20064;-88
2023/08/15 02:43:22;;;;;;;4.55;2.00;;;;;;;18.63;95.56;101301.28;4995831;28;20026;-88
2023/08/15 02:45:48;;;;;;;4.18;1.70;;;;;;;18.62;95.60;101304.88;5014307;28;20033;-87
2023/08/15 02:48:13;;;;;;;2.72;1.35;;;;;;;18.63;95.62;101311.00;4995997;28;20064;-87
2023/08/15 02:50:39;;;;;;;3.45;1.52;;;;;;;18.61;95.63;101312.00;5014289;28;20390;-88
2023/08/15 02:53:04;;;;;;;5.25;2.13;;;;;;;18.61;95.89;101309.34;5014260;28;20398;-88
2023/08/15 02:55:29;;;;;;;2.15;1.33;;;;;;;18.61;95.75;101313.81;4995621;28;20327;-88
2023/08/15 02:57:58;;;;;;;2.20;1.35;;;;;;;18.60;95.84;101315.56;4996734;28;20060;-88
2023/08/15 03:00:24;;;;;;;3.60;1.40;;;;;;;18.59;95.77;101319.19;5013594;28;20030;-89
2023/08/15 03:02:49;;;;;;;3.47;1.40;;;;;;;18.59;95.86;101324.50;4996407;28;20018;-89
2023/08/15 03:05:14;;;;;;;7.45;1.88;;;;;;;18.58;95.91;101322.78;5013484;28;20108;-89
2023/08/15 03:07:40;;;;;;;2.40;1.20;;;;;;;18.57;95.82;101322.88;5013404;28;20320;-89
2023/08/15 03:10:05;;;;;;;4.00;1.33;;;;;;;18.56;95.95;101319.41;5013678;28;20072;-89
2023/08/15 03:12:31;;;;;;;2.70;1.73;;;;;;;18.56;96.09;101327.34;4995426;28;20034;-88
2023/08/15 03:15:00;;;;;;;2.90;1.50;;;;;;;18.54;95.92;101321.31;5014102;28;20041;-89
2023/08/15 03:17:25;;;;;;;;;;;;;;;18.54;95.99;101323.13;5013894;28;20029;-89
2023/08/15 03:19:52;;;;;;;2.80;1.30;;;;;;;18.52;96.11;101320.56;5013909;28;19914;-89
2023/08/15 03:22:18;;;;;;;1.63;1.27;;;;;;;18.51;96.20;101318.84;5012914;28;20303;-88
2023/08/15 03:24:43;;;;;;;2.53;1.30;;;;;;;18.49;96.06;101315.44;4995940;28;20093;-89
2023/08/15 03:27:09;;;;;;;3.33;1.70;;;;;;;18.49;96.44;101323.41;4996009;28;20056;-89
2023/08/15 03:29:34;;;;;;;4.80;1.42;;;;;;;18.48;96.24;101319.06;5013568;28;20037;-89
2023/08/15 03:32:00;;;;;;;4.32;1.48;;;;;;;18.47;96.18;101320.00;5013853;28;20300;-89
2023/08/15 03:34:25;;;;;;;4.07;1.52;;;;;;;18.46;96.28;101328.91;5013367;28;20156;-89
2023/08/15 03:36:51;;;;;;;3.83;1.55;;;;;;;18.44;96.42;101327.31;5014169;28;20093;-89
2023/08/15 03:39:16;;;;;;;5.43;1.60;;;;;;;18.42;96.47;101328.25;5013374;28;20084;-89
2023/08/15 03:41:42;;;;;;;3.10;1.40;;;;;;;18.41;96.41;101328.38;4996107;28;20328;-89
2023/08/15 03:44:07;;;;;;;5.03;1.60;;;;;;;18.40;96.33;101329.31;5013844;28;20048;-89
2023/08/15 03:46:32;;;;;;;2.58;1.40;;;;;;;18.39;96.55;101335.56;4995217;28;20112;-89
2023/08/15 03:48:58;;;;;;;4.75;1.52;;;;;;;18.37;96.49;101343.66;5013415;28;20072;-89
2023/08/15 03:51:23;;;;;;;1.95;1.27;;;;;;;18.37;96.53;101345.44;4995497;28;20047;-89
2023/08/15 03:53:49;;;;;;;2.65;1.40;;;;;;;18.35;96.66;101344.69;4996780;28;20136;-89
2023/08/15 03:56:14;;;;;;;4.45;1.80;;;;;;;18.35;96.57;101355.28;4998891;28;20025;-89
2023/08/15 03:58:39;;;;;;;3.38;1.45;;;;;;;18.33;96.78;101358.03;5016953;28;20033;-89
2023/08/15 04:01:05;;;;;;;7.28;1.92;;;;;;;18.32;96.78;101353.69;4999856;28;20244;-89
2023/08/15 04:03:30;;;;;;;3.58;1.58;;;;;;;18.33;96.83;101357.19;4998496;28;20101;-89
2023/08/15 04:05:56;;;;;;;5.45;1.80;;;;;;;18.32;96.97;101347.53;4999529;28;20041;-89
2023/08/15 04:08:21;;;;;;;6.00;2.00;;;;;;;18.32;97.29;101350.16;4998298;28;20080;-89
2023/08/15 04:10:47;;;;;;;4.88;1.90;;;;;;;18.31;97.30;101346.69;4999087;28;20026;-89
2023/08/15 04:13:13;;;;;;;6.72;1.70;;;;;;;18.31;97.43;101349.31;4998724;28;20137;-89
2023/08/15 04:15:39;;;;;;;4.70;1.90;;;;;;;18.31;97.46;101345.84;4998664;28;20036;-89
2023/08/15 04:18:05;;;;;;;4.97;2.00;;;;;;;18.32;97.33;101339.56;4999209;28;20241;-89
2023/08/15 04:20:31;;;;;;;7.13;2.00;;;;;;;18.32;97.48;101337.78;5016249;28;20040;-89
2023/08/15 04:22:57;;;;;;;5.65;2.13;;;;;;;18.31;97.63;101338.72;5016220;28;20144;-89
2023/08/15 04:25:22;;;;;;;4.20;2.20;;;;;;;18.30;97.61;101337.03;4997825;28;20355;-89
2023/08/15 04:27:48;;;;;;;5.80;1.88;;;;;;;18.32;97.53;101340.44;5016509;28;20036;-89
2023/08/15 04:30:13;;;;;;;7.10;2.15;;;;;;;18.31;97.75;101340.53;4998389;28;20252;-88
2023/08/15 04:32:39;;;;;;;4.25;2.53;;;;;;;18.31;97.97;101333.41;4998610;28;20065;-89
2023/08/15 04:35:05;;;;;;;9.13;2.58;;;;;;;18.31;97.99;101333.41;5016403;28;20042;-89
2023/08/15 04:37:30;;;;;;;7.50;2.80;;;;;;;18.32;97.77;101334.25;5015260;28;20053;-89
2023/08/15 04:39:55;;;;;;;6.70;2.17;;;;;;;18.32;98.11;101336.91;4998470;28;20383;-89
2023/08/15 04:42:21;;;;;;;7.22;1.67;;;;;;;18.32;98.12;101336.91;5015396;28;20105;-88
2023/08/15 04:44:46;;;;;;;5.85;2.17;;;;;;;18.31;98.20;101328.13;5016206;28;20333;-89
2023/08/15 04:47:12;;;;;;;9.95;2.85;;;;;;;18.31;98.34;101335.22;4998678;28;20038;-89
2023/08/15 04:49:38;;;;;;;8.55;2.53;;;;;;;18.31;98.30;101336.06;4997979;28;20376;-89
2023/08/15 04:52:04;;;;;;;7.95;2.58;;;;;;;18.30;98.44;101326.44;4998178;28;20064;-89
2023/08/15 04:54:30;;;;;;;9.15;2.42;;;;;;;18.29;98.42;101335.31;5015439;28;20213;-89
2023/08/15 04:56:55;;;;;;;11.27;2.47;;;;;;;18.30;98.23;101344.13;5015623;28;20041;-89
2023/08/15 04:59:21;;;;;;;8.57;2.67;;;;;;;18.30;98.46;101357.38;5015450;28;20050;-89
2023/08/15 05:01:46;;;;;;;5.60;2.42;;;;;;;18.31;98.60;101356.44;5015948;28;20033;-89
2023/08/15 05:04:11;;;;;;;8.00;2.45;;;;;;;18.29;98.70;101356.53;5015950;28;20104;-89
2023/08/15 05:06:38;;;;;;;7.38;2.13;;;;;;;18.30;98.69;101350.31;5015666;28;20048;-89
2023/08/15 05:09:04;;;;;;;5.15;1.83;;;;;;;18.30;98.63;101358.25;5015632;28;20448;-89
2023/08/15 05:11:29;;;;;;;5.13;2.25;;;;;;;18.31;98.83;101367.03;5015140;28;20033;-89
2023/08/15 05:13:54;;;;;;;11.80;2.17;;;;;;;18.30;98.82;101366.22;5016044;28;20041;-89
2023/08/15 05:16:20;;;;;;;6.35;2.53;;;;;;;18.30;98.60;101373.28;4997611;28;20054;-89
2023/08/15 05:18:45;;;;;;;7.00;2.20;;;;;;;18.31;98.64;101375.00;5015613;28;20041;-89
2023/08/15 05:21:11;;;;;;;6.78;2.92;;;;;;;18.31;98.59;101370.53;5015752;28;20030;-89
2023/08/15 05:23:36;;;;;;;9.48;2.50;;;;;;;18.32;98.84;101376.69;4996990;28;20021;-89
2023/08/15 05:26:02;;;;;;;6.03;2.95;;;;;;;18.32;98.69;101379.34;5015198;28;20117;-89
2023/08/15 05:28:27;;;;;;;5.60;3.03;;;;;;;18.32;99.03;101380.22;5014898;28;20034;-89
2023/08/15 05:30:53;;;;;;;8.35;3.15;;;;;;;18.32;98.99;101385.50;5015370;28;20041;-89
2023/08/15 05:33:19;;;;;;;6.35;2.72;;;;;;;18.33;99.27;101389.00;5014839;28;20317;-89
2023/08/15 05:35:45;;;;;;;5.80;2.97;;;;;;;18.33;99.06;101391.66;5015543;28;20040;-89
2023/08/15 05:38:10;;;;;;;6.90;2.85;;;;;;;18.33;99.12;101402.25;4997266;28;20029;-89
2023/08/15 05:40:35;;;;;;;6.13;2.65;;;;;;;18.33;99.40;101400.44;5014226;28;20527;-89
2023/08/15 05:43:01;;;;;;;6.13;2.42;;;;;;;18.34;99.46;101393.38;4997535;28;20038;-89
2023/08/15 05:45:26;;;;;;;4.47;2.30;;;;;;;18.35;99.38;101392.41;5014661;28;20034;-89
2023/08/15 05:47:52;;;;;;;9.52;2.47;;;;;;;18.35;99.37;101395.06;5015260;28;20042;-89
2023/08/15 05:50:17;;;;;;;5.28;2.80;;;;;;;18.35;99.39;101397.72;5014540;28;20089;-89
2023/08/15 05:52:46;;;;;;;4.25;2.67;;;;;;;18.36;99.37;101402.06;5015058;28;20037;-89
2023/08/15 05:55:11;;;;;;;9.05;3.13;;;;;;;18.35;99.40;101395.91;5015214;28;20351;-89
2023/08/15 05:57:36;;;;;;;10.35;3.13;;;;;;;18.37;99.59;101395.81;5014667;28;20045;-89
2023/08/15 06:00:04;;;;;;;6.63;2.72;;;;;;;18.36;99.34;101394.13;5015113;28;20030;-89
2023/08/15 06:02:34;;;;;;;7.30;2.83;;;;;;;18.36;99.40;101400.25;4996786;28;20172;-89
2023/08/15 06:05:01;;;;;;;8.48;3.15;;;;;;;18.38;99.43;101405.47;5014772;28;20049;-89
2023/08/15 06:07:26;;;;;;;7.40;2.70;;;;;;;18.38;99.22;101416.91;4996429;28;20327;-89
2023/08/15 06:09:52;;;;;;;14.95;2.90;;;;;;;18.38;99.28;101413.44;4997056;28;20218;-89
2023/08/15 06:12:17;;;;;;;6.30;2.70;;;;;;;18.38;99.19;101416.09;5014022;28;20037;-89
2023/08/15 06:14:42;;;;;;;4.97;2.95;;;;;;;18.40;99.53;101427.44;5014884;28;20033;-89
2023/08/15 06:17:08;;;;;;;9.73;3.00;;;;;;;18.39;99.32;101423.06;5014519;28;20064;-89
2023/08/15 06:19:34;;;;;;;7.55;2.58;;;;;;;18.39;99.32;101431.03;4996382;28;20163;-89
2023/08/15 06:21:59;;;;;;;5.95;2.30;;;;;;;18.39;99.34;101441.63;4996809;28;20145;-89
2023/08/15 06:24:24;;;;;;;5.18;2.55;;;;;;;18.40;99.44;101441.53;5013709;28;20044;-88
2023/08/15 06:26:50;;;;;;;12.90;3.63;;;;;;;18.40;99.23;101444.19;5014583;28;20060;-89
2023/08/15 06:29:15;;;;;;;6.75;2.13;;;;;;;18.41;99.32;101450.38;5014216;28;20061;-89
2023/08/15 06:31:41;;;;;;;6.78;2.50;;;;;;;18.42;99.09;101462.66;4996389;28;20022;-89
2023/08/15 06:34:07;;;;;;;10.73;2.60;;;;;;;18.42;99.11;101462.66;4996791;28;20095;-89
2023/08/15 06:36:32;;;;;;;5.80;3.08;;;;;;;18.42;99.13;101470.63;4995882;28;20294;-89
2023/08/15 06:38:58;;;;;;;5.68;2.38;;;;;;;18.43;99.48;101464.38;5014238;28;20037;-89
2023/08/15 06:41:23;;;;;;;5.05;3.00;;;;;;;18.42;99.12;101470.63;5013667;28;20061;-89
2023/08/15 06:43:51;;;;;;;9.07;3.13;;;;;;;18.44;99.10;101473.16;5014043;28;20072;-89
2023/08/15 06:46:16;;;;;;;11.27;4.22;;;;;;;18.45;98.99;101474.88;5013653;28;20092;-89
2023/08/15 06:48:42;;;;;;;7.25;3.55;;;;;;;18.46;98.88;101474.75;4996161;28;20026;-89
2023/08/15 06:51:07;;;;;;;8.40;3.63;;;;;;;18.48;98.97;101469.38;5014291;28;20060;-89
2023/08/15 06:53:33;;;;;;;7.85;3.63;;;;;;;18.49;98.94;101474.56;5013603;28;20030;-89
2023/08/15 06:55:58;;;;;;;4.15;3.42;;;;;;;18.51;98.59;101477.13;5013911;28;20037;-89
2023/08/15 06:58:25;;;;;;;6.43;3.28;;;;;;;18.52;98.42;101476.16;4995630;28;20022;-89
2023/08/15 07:00:50;;;;;;;6.72;3.35;;;;;;;18.53;98.51;101486.69;5013924;28;20042;-89
2023/08/15 07:03:17;;;;;;;7.25;3.83;;;;;;;18.54;98.24;101488.41;5013722;28;20253;-89
2023/08/15 07:05:43;;;;;;;11.48;3.63;;;;;;;18.54;98.19;101487.56;5013780;28;20065;-89
2023/08/15 07:08:08;;;;;;;7.38;3.92;;;;;;;18.54;98.12;101479.59;4996157;28;20489;-89
2023/08/15 07:10:34;;;;;;;5.38;3.05;;;;;;;18.55;98.03;101478.63;4995330;28;20030;-89
2023/08/15 07:13:00;;;;;;;7.97;3.00;;;;;;;18.56;98.15;101483.84;4996082;28;20032;-89
2023/08/15 07:15:26;;;;;;;8.00;3.47;;;;;;;18.57;98.00;101492.66;4995202;28;20034;-89
2023/08/15 07:17:51;;;;;;;8.45;3.15;;;;;;;18.57;97.71;101496.16;4996301;28;20032;-89
2023/08/15 07:20:17;;;;;;;8.32;3.13;;;;;;;18.58;97.64;101481.09;4995072;28;20132;-89
2023/08/15 07:22:43;;;;;;;8.15;3.53;;;;;;;18.59;97.56;101488.97;5013880;28;20384;-89
2023/08/15 07:25:09;;;;;;;6.32;4.18;;;;;;;18.60;97.87;101487.16;4995896;28;20034;-89
2023/08/15 07:27:35;;;;;;;5.18;3.40;;;;;;;18.63;98.36;101491.41;4994764;28;20049;-89
2023/08/15 07:30:00;;;;;;;5.32;3.28;;;;;;;18.64;98.27;101493.13;4999389;28;20346;-89
2023/08/15 07:32:28;;;;;;;5.88;3.75;;;;;;;18.66;98.16;101491.22;4998963;28;20018;-89
2023/08/15 07:34:54;;;;;;;7.75;4.18;;;;;;;18.68;98.30;101490.19;5017793;28;20033;-89
2023/08/15 07:37:20;;;;;;;5.25;3.97;;;;;;;18.70;98.30;101498.00;5017462;28;20066;-89
2023/08/15 07:39:45;;;;;;;9.07;5.00;;;;;;;18.72;98.42;101498.75;4999537;28;20049;-89
2023/08/15 07:42:11;;;;;;;7.15;4.38;;;;;;;18.72;98.35;101494.31;4999324;28;20038;-89
2023/08/15 07:44:37;;;;;;;7.68;4.00;;;;;;;18.74;98.44;101505.69;5017648;28;20380;-89
2023/08/15 07:47:02;;;;;;;8.77;4.20;;;;;;;18.74;97.96;101511.00;5017178;28;20084;-89
2023/08/15 07:49:30;;;;;;;6.50;4.05;;;;;;;18.76;97.93;101509.09;5017077;28;20060;-89
2023/08/15 07:51:56;;;;;;;12.35;4.18;;;;;;;18.76;97.81;101511.75;5017416;28;20336;-89
2023/08/15 07:54:21;;;;;;;5.10;3.50;;;;;;;18.79;97.98;101510.69;4998506;28;20052;-89
2023/08/15 07:56:47;;;;;;;8.05;4.28;;;;;;;18.80;98.39;101517.69;5016828;28;20228;-89
2023/08/15 07:59:13;;;;;;;7.45;4.05;;;;;;;18.82;98.37;101517.66;4998872;28;20029;-89
2023/08/15 08:01:38;;;;;;;6.55;3.40;;;;;;;18.83;98.43;101522.84;5016813;28;20041;-89
2023/08/15 08:04:04;;;;;;;11.30;3.42;;;;;;;18.85;98.42;101522.75;4999447;28;20441;-89
2023/08/15 08:06:30;;;;;;;4.05;3.00;;;;;;;18.86;98.39;101524.44;4998725;28;20036;-89
2023/08/15 08:08:55;;;;;;;5.57;4.30;;;;;;;18.86;98.62;101525.28;5016727;28;20352;-89
2023/08/15 08:11:21;;;;;;;7.65;4.28;;;;;;;18.88;98.16;101525.19;5016072;28;20429;-89
2023/08/15 08:13:46;;;;;;;5.45;3.50;;;;;;;18.88;98.37;101531.38;4998872;28;20245;-89
2023/08/15 08:16:12;;;;;;;5.60;3.55;;;;;;;18.90;98.43;101534.78;5016660;28;20220;-89
2023/08/15 08:18:37;;;;;;;5.28;2.65;;;;;;;18.92;98.43;101538.19;4998610;28;20029;-89
2023/08/15 08:21:04;;;;;;;6.50;3.20;;;;;;;18.92;98.48;101530.22;5016726;28;20033;-89
2023/08/15 08:23:30;;;;;;;5.00;3.55;;;;;;;18.93;98.77;101534.56;4997958;28;20030;-89
2023/08/15 08:25:56;;;;;;;7.55;3.17;;;;;;;18.94;98.36;101541.59;5016455;28;20037;-89
2023/08/15 08:28:22;;;;;;;3.80;2.65;;;;;;;18.96;98.15;101542.31;5016087;28;20088;-89
2023/08/15 08:30:48;;;;;;;7.45;3.30;;;;;;;18.96;98.17;101537.03;4998712;28;20260;-89
2023/08/15 08:33:14;;;;;;;2.83;2.60;;;;;;;18.98;98.19;101547.53;4998951;28;20409;-88
2023/08/15 08:35:39;;;;;;;3.15;2.53;;;;;;;18.99;97.97;101550.09;4998692;28;20241;-89
2023/08/15 08:38:05;;;;;;;6.93;2.67;;;;;;;18.99;97.78;101552.75;5016217;28;20061;-89
2023/08/15 08:40:30;;;;;;;5.20;2.53;;;;;;;19.01;98.00;101559.75;5015562;28;20029;-89
2023/08/15 08:42:56;;;;;;;7.82;3.22;;;;;;;19.01;98.21;101557.09;5016255;28;20042;-89
2023/08/15 08:45:24;;;;;;;6.53;3.05;;;;;;;19.03;98.42;101553.41;5015694;28;20344;-89
2023/08/15 08:47:50;;;;;;;5.45;3.33;;;;;;;19.02;98.54;101559.66;5016219;28;20088;-89
2023/08/15 08:50:16;;;;;;;4.95;2.90;;;;;;;19.04;98.23;101559.56;5015839;28;20365;-89
2023/08/15 08:52:49;;;;;;;6.78;3.28;;;;;;;19.04;98.06;101556.91;5016520;28;20311;-89
2023/08/15 08:55:19;;;;;;;7.32;2.47;;;;;;;19.04;98.13;101562.22;4998137;28;20036;-89
2023/08/15 08:57:51;;;;;;;2.13;2.00;;;;;;;19.04;98.22;101563.06;5016105;28;20033;-89
2023/08/15 09:00:21;;;;;;;4.72;3.33;;;;;;;19.06;98.09;101566.47;4997835;28;20033;-89
2023/08/15 09:02:46;;;;;;;5.55;3.42;;;;;;;19.05;98.17;101566.59;5016071;28;20052;-89
2023/08/15 09:05:12;;;;;;;4.75;3.20;;;;;;;19.05;98.25;101574.56;4998188;28;20050;-89
2023/08/15 09:07:37;;;;;;;5.57;3.17;;;;;;;19.07;98.25;101577.94;4997706;28;20037;-89
2023/08/15 09:10:04;;;;;;;3.35;2.88;;;;;;;19.07;98.13;101577.94;5015744;28;20056;-89
2023/08/15 09:12:33;;;;;;;2.80;2.60;;;;;;;19.08;97.96;101576.97;5015155;28;20076;-89
2023/08/15 09:14:59;;;;;;;5.18;2.70;;;;;;;19.08;98.09;101577.84;5015790;28;20069;-89
2023/08/15 09:17:25;;;;;;;2.83;2.28;;;;;;;19.07;98.20;101577.94;5015218;28;20033;-89
2023/08/15 09:19:51;;;;;;;9.65;2.58;;;;;;;19.06;98.49;101582.38;5015598;28;20064;-89
2023/08/15 09:22:24;;;;;;;4.00;3.28;;;;;;;19.07;98.54;101575.31;5015032;28;20355;-89
2023/08/15 09:24:50;;;;;;;7.88;2.47;;;;;;;19.08;98.55;101576.97;4998095;28;20049;-89
2023/08/15 09:27:16;;;;;;;2.55;1.98;;;;;;;19.08;98.83;101577.84;5015168;28;20460;-89
2023/08/15 09:29:42;;;;;;;2.67;2.25;;;;;;;19.09;98.81;101574.22;5015480;28;20374;-89
2023/08/15 09:32:08;;;;;;;2.60;1.63;;;;;;;19.10;98.68;101597.19;4997446;28;20029;-89
2023/08/15 09:34:33;;;;;;;3.33;1.83;;;;;;;19.11;98.80;101588.25;5014708;28;20065;-89
2023/08/15 09:36:59;;;;;;;4.65;1.70;;;;;;;19.12;98.77;101589.13;4997504;28;20025;-89
2023/08/15 09:39:24;;;;;;;1.35;1.20;;;;;;;19.13;99.09;101591.66;4996785;28;20033;-89
2023/08/15 09:41:52;;;;;;;1.33;1.17;;;;;;;19.14;99.00;101593.38;4997279;28;20352;-89
2023/08/15 09:44:38;;;;;;;2.55;1.38;;;;;;;19.16;98.96;101582.66;4997147;28;20038;-89
2023/08/15 09:47:06;;;;;;;1.25;1.15;;;;;;;19.16;98.62;101586.16;4996986;28;20042;-89
2023/08/15 09:49:32;;;;;;;1.13;1.00;;;;;;;19.18;98.60;101583.41;5014522;28;20041;-89
2023/08/15 09:52:00;;;;;;;2.97;0.82;;;;;;;19.20;98.53;101600.09;4996630;28;20079;-89
2023/08/15 09:54:30;;;;;;;1.10;0.80;;;;;;;19.23;98.50;101607.00;5014229;28;20395;-89
2023/08/15 09:56:57;;;;;;;0.93;0.75;;;;;;;19.25;98.52;101605.13;5014564;28;20402;-89
2023/08/15 09:59:23;;;;;;;2.05;0.70;;;;;;;19.25;98.54;101611.28;4996321;28;20168;-89
2023/08/15 10:01:52;;;;;;;0.50;0.50;;;;;;;19.25;98.28;101616.56;5014646;28;20333;-89
2023/08/15 10:04:19;;;;;;;0.47;0.47;;;;;;;19.26;98.27;101622.72;5014037;28;20037;-89
2023/08/15 10:06:46;;;;;;;0.40;0.40;;;;;;;19.26;98.65;101622.72;4997151;28;20083;-89
2023/08/15 10:09:14;;;;;;;2.72;0.60;;;;;;;19.27;98.63;101629.75;4996687;28;20034;-89
2023/08/15 10:11:44;;;;;;;1.00;0.75;;;;;;;19.27;98.70;101633.25;5014194;28;20033;-89
2023/08/15 10:14:14;;;;;;;1.13;0.50;;;;;;;19.29;98.68;101638.47;5015021;28;20347;-89
2023/08/15 10:16:39;;;;;;;3.55;0.60;;;;;;;19.29;98.68;101649.94;4996593;28;20096;-89
2023/08/15 10:19:05;;;;;;;1.85;0.75;;;;;;;19.29;98.26;101649.94;4996604;28;20026;-89
2023/08/15 10:21:50;;;;;;;1.13;0.85;;;;;;;19.29;98.12;101652.59;4996411;28;20037;-89
2023/08/15 10:24:15;;;;;;;3.60;1.40;;;;;;;19.29;98.02;101657.06;4996229;28;20118;-89
2023/08/15 10:26:45;;;;;;;1.42;1.15;;;;;;;19.27;97.84;101653.66;4995760;28;20060;-89
2023/08/15 10:29:12;;;;;;;1.58;1.05;;;;;;;19.26;98.10;101660.75;4996320;28;20236;-89
2023/08/15 10:31:39;;;;;;;1.30;1.20;;;;;;;19.27;98.36;101651.00;4996178;28;20356;-89
2023/08/15 10:34:08;;;;;;;3.08;1.40;;;;;;;19.28;98.17;101652.69;5014573;28;20068;-89
2023/08/15 10:36:33;;;;;;;3.13;1.60;;;;;;;19.27;98.86;101651.00;5013630;28;20041;-89
2023/08/15 10:39:05;;;;;;;2.15;1.40;;;;;;;19.31;98.82;101660.47;4996140;28;20025;-89
2023/08/15 10:41:31;;;;;;;2.28;1.40;;;;;;;19.30;99.22;101662.28;5013582;28;20143;-89
2023/08/15 10:44:02;;;;;;;1.70;1.50;;;;;;;19.32;98.78;101662.19;4996387;28;20037;-89
2023/08/15 10:46:29;;;;;;;3.25;1.38;;;;;;;19.33;98.52;101661.22;5013473;28;20037;-89
2023/08/15 10:49:11;;;;;;;1.30;1.20;;;;;;;19.34;98.50;101666.44;5014102;28;20382;-89
2023/08/15 10:51:38;;;;;;;2.40;1.13;;;;;;;19.34;98.59;101661.13;5013172;28;20302;-89
2023/08/15 10:54:08;;;;;;;6.32;1.50;;;;;;;19.35;98.43;101657.50;4996377;28;20064;-89
2023/08/15 10:56:36;;;;;;;1.70;1.20;;;;;;;19.36;98.33;101666.34;5013312;28;20057;-88
2023/08/15 10:59:05;;;;;;;0.87;0.87;;;;;;;19.38;98.23;101672.41;5013838;28;20039;-89
2023/08/15 11:01:31;;;;;;;1.98;0.95;;;;;;;19.39;98.08;101676.75;4995319;28;20038;-89
2023/08/15 11:03:57;;;;;;;1.40;0.90;;;;;;;19.40;98.15;101677.63;4996111;28;20104;-89
2023/08/15 11:06:23;;;;;;;1.42;1.10;;;;;;;19.42;97.80;101678.38;4995340;28;20076;-89
2023/08/15 11:08:53;;;;;;;2.50;1.20;;;;;;;19.41;97.75;101671.34;4995675;28;20034;-89
2023/08/15 11:11:19;;;;;;;1.40;0.90;;;;;;;19.43;97.54;101672.97;5013135;28;20096;-89
2023/08/15 11:13:46;;;;;;;0.85;0.80;;;;;;;19.44;97.60;101669.34;5013848;28;20042;-89
2023/08/15 11:16:18;;;;;;;2.83;1.20;;;;;;;19.46;97.30;101680.72;4995943;28;20386;-89
2023/08/15 11:18:44;;;;;;;1.25;0.85;;;;;;;19.47;97.46;101679.78;4996117;28;20096;-89
2023/08/15 11:21:11;;;;;;;4.00;0.90;;;;;;;19.49;97.41;101677.88;5013723;28;20044;-89
2023/08/15 11:23:37;;;;;;;1.52;0.77;;;;;;;19.51;97.63;101680.44;5013114;28;20041;-89
2023/08/15 11:26:06;;;;;;;1.23;1.05;;;;;;;19.52;97.67;101675.03;5013368;28;20038;-89